sensor_id;sensor_type;location;lat;lon;timestamp;P1;durP1;ratioP1;P2;durP2;ratioP2
24147;SDS011;12309;51.450;-2.624;2023-03-01T00:01:20;0.70;;;0.30;;
24147;SDS011;12309;51.450;-2.624;2023-03-01T00:03:48;1.63;;;0.60;;
24147;SDS011;12309;51.450;-2.624;2023-03-01T00:06:14;2.40;;;0.50;;
24147;SDS011;12309;51.450;-2.624;2023-03-01T00:08:40;0.70;;;0.40;;
24147;SDS011;12309;51.450;-2.624;2023-03-01T00:11:17;1.73;;;0.50;;
24147;SDS011;12309;51.450;-2.624;2023-03-01T00:13:47;0.57;;;0.50;;
24147;SDS011;12309;51.450;-2.624;2023-03-01T00:16:20;1.27;;;0.50;;
24147;SDS011;12309;51.450;-2.624;2023-03-01T00:18:54;2.03;;;0.40;;
24147;SDS011;12309;51.450;-2.624;2023-03-01T00:21:21;0.50;;;0.47;;
24147;SDS011;12309;51.450;-2.624;2023-03-01T00:23:47;0.67;;;0.40;;
24147;SDS011;12309;51.450;-2.624;2023-03-01T00:26:13;0.33;;;0.33;;
24147;SDS011;12309;51.450;-2.624;2023-03-01T00:28:40;0.60;;;0.40;;
24147;SDS011;12309;51.450;-2.624;2023-03-01T00:31:08;2.07;;;0.47;;
24147;SDS011;12309;51.450;-2.624;2023-03-01T00:33:38;0.50;;;0.33;;
24147;SDS011;12309;51.450;-2.624;2023-03-01T00:36:05;2.00;;;0.67;;
24147;SDS011;12309;51.450;-2.624;2023-03-01T00:38:34;0.20;;;0.10;;
24147;SDS011;12309;51.450;-2.624;2023-03-01T00:41:07;1.63;;;0.40;;
24147;SDS011;12309;51.450;-2.624;2023-03-01T00:43:36;1.47;;;0.30;;
24147;SDS011;12309;51.450;-2.624;2023-03-01T00:46:03;0.73;;;0.50;;
24147;SDS011;12309;51.450;-2.624;2023-03-01T00:48:30;1.53;;;0.33;;
24147;SDS011;12309;51.450;-2.624;2023-03-01T00:50:56;1.13;;;0.40;;
24147;SDS011;12309;51.450;-2.624;2023-03-01T00:53:22;0.57;;;0.33;;
24147;SDS011;12309;51.450;-2.624;2023-03-01T00:55:47;1.70;;;0.20;;
24147;SDS011;12309;51.450;-2.624;2023-03-01T00:58:13;0.80;;;0.33;;
24147;SDS011;12309;51.450;-2.624;2023-03-01T01:00:39;2.80;;;0.40;;
24147;SDS011;12309;51.450;-2.624;2023-03-01T01:03:04;2.37;;;0.50;;
24147;SDS011;12309;51.450;-2.624;2023-03-01T01:05:30;2.40;;;0.50;;
24147;SDS011;12309;51.450;-2.624;2023-03-01T01:07:55;1.07;;;0.57;;
24147;SDS011;12309;51.450;-2.624;2023-03-01T01:10:21;1.67;;;0.60;;
24147;SDS011;12309;51.450;-2.624;2023-03-01T01:12:47;3.27;;;1.13;;
24147;SDS011;12309;51.450;-2.624;2023-03-01T01:15:13;3.03;;;0.50;;
24147;SDS011;12309;51.450;-2.624;2023-03-01T01:17:41;2.97;;;0.50;;
24147;SDS011;12309;51.450;-2.624;2023-03-01T01:20:07;2.87;;;0.53;;
24147;SDS011;12309;51.450;-2.624;2023-03-01T01:22:33;1.00;;;0.23;;
24147;SDS011;12309;51.450;-2.624;2023-03-01T01:24:59;0.80;;;0.20;;
24147;SDS011;12309;51.450;-2.624;2023-03-01T01:27:24;0.47;;;0.30;;
24147;SDS011;12309;51.450;-2.624;2023-03-01T01:29:52;0.70;;;0.40;;
24147;SDS011;12309;51.450;-2.624;2023-03-01T01:32:18;0.40;;;0.30;;
24147;SDS011;12309;51.450;-2.624;2023-03-01T01:34:43;0.63;;;0.30;;
24147;SDS011;12309;51.450;-2.624;2023-03-01T01:37:09;1.03;;;0.30;;
24147;SDS011;12309;51.450;-2.624;2023-03-01T01:39:34;0.40;;;0.40;;
24147;SDS011;12309;51.450;-2.624;2023-03-01T01:42:00;1.50;;;0.50;;
24147;SDS011;12309;51.450;-2.624;2023-03-01T01:44:27;1.10;;;0.40;;
24147;SDS011;12309;51.450;-2.624;2023-03-01T01:52:03;0.30;;;0.30;;
24147;SDS011;12309;51.450;-2.624;2023-03-01T01:54:38;1.50;;;0.40;;
24147;SDS011;12309;51.450;-2.624;2023-03-01T01:57:09;1.00;;;0.50;;
24147;SDS011;12309;51.450;-2.624;2023-03-01T01:59:39;0.60;;;0.40;;
24147;SDS011;12309;51.450;-2.624;2023-03-01T02:02:10;1.30;;;0.50;;
24147;SDS011;12309;51.450;-2.624;2023-03-01T02:04:37;1.57;;;0.40;;
24147;SDS011;12309;51.450;-2.624;2023-03-01T02:07:06;1.70;;;0.30;;
24147;SDS011;12309;51.450;-2.624;2023-03-01T02:09:43;1.20;;;0.30;;
24147;SDS011;12309;51.450;-2.624;2023-03-01T02:12:12;1.07;;;0.43;;
24147;SDS011;12309;51.450;-2.624;2023-03-01T02:14:42;2.07;;;0.40;;
24147;SDS011;12309;51.450;-2.624;2023-03-01T02:17:08;2.67;;;0.30;;
24147;SDS011;12309;51.450;-2.624;2023-03-01T02:30:35;0.60;;;0.50;;
24147;SDS011;12309;51.450;-2.624;2023-03-01T02:33:01;1.23;;;0.40;;
24147;SDS011;12309;51.450;-2.624;2023-03-01T02:35:36;1.83;;;0.50;;
24147;SDS011;12309;51.450;-2.624;2023-03-01T02:38:05;1.13;;;0.40;;
24147;SDS011;12309;51.450;-2.624;2023-03-01T02:40:33;3.30;;;0.73;;
24147;SDS011;12309;51.450;-2.624;2023-03-01T02:43:00;0.40;;;0.40;;
24147;SDS011;12309;51.450;-2.624;2023-03-01T02:45:29;0.53;;;0.40;;
24147;SDS011;12309;51.450;-2.624;2023-03-01T02:47:55;2.70;;;0.50;;
24147;SDS011;12309;51.450;-2.624;2023-03-01T02:52:56;3.07;;;0.50;;
24147;SDS011;12309;51.450;-2.624;2023-03-01T02:55:44;4.47;;;0.60;;
24147;SDS011;12309;51.450;-2.624;2023-03-01T02:58:09;1.73;;;0.50;;
24147;SDS011;12309;51.450;-2.624;2023-03-01T03:00:36;0.73;;;0.60;;
24147;SDS011;12309;51.450;-2.624;2023-03-01T03:03:10;3.47;;;0.40;;
24147;SDS011;12309;51.450;-2.624;2023-03-01T03:05:38;1.33;;;0.70;;
24147;SDS011;12309;51.450;-2.624;2023-03-01T03:08:04;1.53;;;0.77;;
24147;SDS011;12309;51.450;-2.624;2023-03-01T03:10:33;1.97;;;0.63;;
24147;SDS011;12309;51.450;-2.624;2023-03-01T03:13:02;1.47;;;0.70;;
24147;SDS011;12309;51.450;-2.624;2023-03-01T03:15:30;3.30;;;0.90;;
24147;SDS011;12309;51.450;-2.624;2023-03-01T03:17:57;6.80;;;1.10;;
24147;SDS011;12309;51.450;-2.624;2023-03-01T03:20:24;2.67;;;0.90;;
24147;SDS011;12309;51.450;-2.624;2023-03-01T03:22:52;2.60;;;1.10;;
24147;SDS011;12309;51.450;-2.624;2023-03-01T03:25:19;3.60;;;0.90;;
24147;SDS011;12309;51.450;-2.624;2023-03-01T03:27:46;1.90;;;0.93;;
24147;SDS011;12309;51.450;-2.624;2023-03-01T03:30:17;2.83;;;0.97;;
24147;SDS011;12309;51.450;-2.624;2023-03-01T03:32:45;1.87;;;0.90;;
24147;SDS011;12309;51.450;-2.624;2023-03-01T03:35:18;1.97;;;1.00;;
24147;SDS011;12309;51.450;-2.624;2023-03-01T03:37:51;2.30;;;0.90;;
24147;SDS011;12309;51.450;-2.624;2023-03-01T03:43:07;4.40;;;1.13;;
24147;SDS011;12309;51.450;-2.624;2023-03-01T03:45:35;1.33;;;0.80;;
24147;SDS011;12309;51.450;-2.624;2023-03-01T03:48:01;1.70;;;0.83;;
24147;SDS011;12309;51.450;-2.624;2023-03-01T03:50:29;2.37;;;0.70;;
24147;SDS011;12309;51.450;-2.624;2023-03-01T03:52:55;1.97;;;0.70;;
24147;SDS011;12309;51.450;-2.624;2023-03-01T03:55:21;4.93;;;0.70;;
24147;SDS011;12309;51.450;-2.624;2023-03-01T03:57:47;1.67;;;0.67;;
24147;SDS011;12309;51.450;-2.624;2023-03-01T04:00:16;1.73;;;0.60;;
24147;SDS011;12309;51.450;-2.624;2023-03-01T04:02:44;6.90;;;0.57;;
24147;SDS011;12309;51.450;-2.624;2023-03-01T04:05:11;3.27;;;0.73;;
24147;SDS011;12309;51.450;-2.624;2023-03-01T04:07:39;1.50;;;0.50;;
24147;SDS011;12309;51.450;-2.624;2023-03-01T04:10:07;2.90;;;0.70;;
24147;SDS011;12309;51.450;-2.624;2023-03-01T04:12:35;3.43;;;0.50;;
24147;SDS011;12309;51.450;-2.624;2023-03-01T04:15:02;5.87;;;0.90;;
24147;SDS011;12309;51.450;-2.624;2023-03-01T04:17:44;1.23;;;0.50;;
24147;SDS011;12309;51.450;-2.624;2023-03-01T04:20:12;2.90;;;0.70;;
24147;SDS011;12309;51.450;-2.624;2023-03-01T04:22:45;0.97;;;0.50;;
24147;SDS011;12309;51.450;-2.624;2023-03-01T04:25:12;2.40;;;0.63;;
24147;SDS011;12309;51.450;-2.624;2023-03-01T04:27:39;1.83;;;0.57;;
24147;SDS011;12309;51.450;-2.624;2023-03-01T04:30:06;1.43;;;0.40;;
24147;SDS011;12309;51.450;-2.624;2023-03-01T04:32:32;4.57;;;0.70;;
24147;SDS011;12309;51.450;-2.624;2023-03-01T04:34:58;1.53;;;0.50;;
24147;SDS011;12309;51.450;-2.624;2023-03-01T04:37:25;2.53;;;0.60;;
24147;SDS011;12309;51.450;-2.624;2023-03-01T04:39:51;1.40;;;0.50;;
24147;SDS011;12309;51.450;-2.624;2023-03-01T04:42:17;2.07;;;0.60;;
24147;SDS011;12309;51.450;-2.624;2023-03-01T04:44:43;1.30;;;0.60;;
24147;SDS011;12309;51.450;-2.624;2023-03-01T04:47:09;2.57;;;0.60;;
24147;SDS011;12309;51.450;-2.624;2023-03-01T04:49:35;3.03;;;0.83;;
24147;SDS011;12309;51.450;-2.624;2023-03-01T04:52:01;2.00;;;0.87;;
24147;SDS011;12309;51.450;-2.624;2023-03-01T04:54:28;0.80;;;0.50;;
24147;SDS011;12309;51.450;-2.624;2023-03-01T04:56:54;2.23;;;0.60;;
24147;SDS011;12309;51.450;-2.624;2023-03-01T04:59:20;0.87;;;0.70;;
24147;SDS011;12309;51.450;-2.624;2023-03-01T05:01:49;1.77;;;0.77;;
24147;SDS011;12309;51.450;-2.624;2023-03-01T05:04:15;3.30;;;0.60;;
24147;SDS011;12309;51.450;-2.624;2023-03-01T05:06:42;1.33;;;1.00;;
24147;SDS011;12309;51.450;-2.624;2023-03-01T05:09:07;1.60;;;0.70;;
24147;SDS011;12309;51.450;-2.624;2023-03-01T05:11:33;1.53;;;0.90;;
24147;SDS011;12309;51.450;-2.624;2023-03-01T05:14:06;2.97;;;0.90;;
24147;SDS011;12309;51.450;-2.624;2023-03-01T05:16:33;2.00;;;0.90;;
24147;SDS011;12309;51.450;-2.624;2023-03-01T05:19:01;1.60;;;1.07;;
24147;SDS011;12309;51.450;-2.624;2023-03-01T05:21:36;1.50;;;1.03;;
24147;SDS011;12309;51.450;-2.624;2023-03-01T05:24:24;1.93;;;1.20;;
24147;SDS011;12309;51.450;-2.624;2023-03-01T05:26:50;8.80;;;1.50;;
24147;SDS011;12309;51.450;-2.624;2023-03-01T05:29:19;2.23;;;1.43;;
24147;SDS011;12309;51.450;-2.624;2023-03-01T05:31:53;3.07;;;1.43;;
24147;SDS011;12309;51.450;-2.624;2023-03-01T05:34:25;2.00;;;1.30;;
24147;SDS011;12309;51.450;-2.624;2023-03-01T05:36:52;4.03;;;1.70;;
24147;SDS011;12309;51.450;-2.624;2023-03-01T05:39:19;3.80;;;1.90;;
24147;SDS011;12309;51.450;-2.624;2023-03-01T05:41:51;3.03;;;1.60;;
24147;SDS011;12309;51.450;-2.624;2023-03-01T05:44:18;5.20;;;1.50;;
24147;SDS011;12309;51.450;-2.624;2023-03-01T05:46:44;3.67;;;1.50;;
24147;SDS011;12309;51.450;-2.624;2023-03-01T05:49:10;3.17;;;1.90;;
24147;SDS011;12309;51.450;-2.624;2023-03-01T05:51:38;5.03;;;2.10;;
24147;SDS011;12309;51.450;-2.624;2023-03-01T05:54:04;5.73;;;1.90;;
24147;SDS011;12309;51.450;-2.624;2023-03-01T05:56:32;4.50;;;2.27;;
24147;SDS011;12309;51.450;-2.624;2023-03-01T05:59:02;2.67;;;1.90;;
24147;SDS011;12309;51.450;-2.624;2023-03-01T06:01:29;5.13;;;1.90;;
24147;SDS011;12309;51.450;-2.624;2023-03-01T06:03:56;3.27;;;1.83;;
24147;SDS011;12309;51.450;-2.624;2023-03-01T06:06:22;4.10;;;1.90;;
24147;SDS011;12309;51.450;-2.624;2023-03-01T06:08:48;3.57;;;1.90;;
24147;SDS011;12309;51.450;-2.624;2023-03-01T06:11:14;3.23;;;1.80;;
24147;SDS011;12309;51.450;-2.624;2023-03-01T06:13:41;2.30;;;1.80;;
24147;SDS011;12309;51.450;-2.624;2023-03-01T06:16:08;2.83;;;1.87;;
24147;SDS011;12309;51.450;-2.624;2023-03-01T06:18:34;2.40;;;1.73;;
24147;SDS011;12309;51.450;-2.624;2023-03-01T06:21:00;4.23;;;2.10;;
24147;SDS011;12309;51.450;-2.624;2023-03-01T06:23:26;2.87;;;1.73;;
24147;SDS011;12309;51.450;-2.624;2023-03-01T06:25:51;2.83;;;1.90;;
24147;SDS011;12309;51.450;-2.624;2023-03-01T06:28:17;4.00;;;2.40;;
24147;SDS011;12309;51.450;-2.624;2023-03-01T06:30:43;4.63;;;2.27;;
24147;SDS011;12309;51.450;-2.624;2023-03-01T06:33:09;3.20;;;2.53;;
24147;SDS011;12309;51.450;-2.624;2023-03-01T06:35:34;5.07;;;2.90;;
24147;SDS011;12309;51.450;-2.624;2023-03-01T06:38:01;5.70;;;2.93;;
24147;SDS011;12309;51.450;-2.624;2023-03-01T06:40:27;9.67;;;3.57;;
24147;SDS011;12309;51.450;-2.624;2023-03-01T06:42:54;5.27;;;3.27;;
24147;SDS011;12309;51.450;-2.624;2023-03-01T06:45:20;7.00;;;2.83;;
24147;SDS011;12309;51.450;-2.624;2023-03-01T06:47:46;5.63;;;3.03;;
24147;SDS011;12309;51.450;-2.624;2023-03-01T06:50:12;6.67;;;3.57;;
24147;SDS011;12309;51.450;-2.624;2023-03-01T06:52:38;5.27;;;3.43;;
24147;SDS011;12309;51.450;-2.624;2023-03-01T06:55:04;4.97;;;3.40;;
24147;SDS011;12309;51.450;-2.624;2023-03-01T06:57:30;8.13;;;3.27;;
24147;SDS011;12309;51.450;-2.624;2023-03-01T06:59:56;4.70;;;2.50;;
24147;SDS011;12309;51.450;-2.624;2023-03-01T07:02:22;6.93;;;3.13;;
24147;SDS011;12309;51.450;-2.624;2023-03-01T07:04:51;6.67;;;2.63;;
24147;SDS011;12309;51.450;-2.624;2023-03-01T07:07:17;5.00;;;2.93;;
24147;SDS011;12309;51.450;-2.624;2023-03-01T07:09:46;8.47;;;2.77;;
24147;SDS011;12309;51.450;-2.624;2023-03-01T07:12:13;5.67;;;2.73;;
24147;SDS011;12309;51.450;-2.624;2023-03-01T07:14:39;5.27;;;2.87;;
24147;SDS011;12309;51.450;-2.624;2023-03-01T07:17:05;5.17;;;2.73;;
24147;SDS011;12309;51.450;-2.624;2023-03-01T07:19:31;7.40;;;2.97;;
24147;SDS011;12309;51.450;-2.624;2023-03-01T07:21:57;5.13;;;3.00;;
24147;SDS011;12309;51.450;-2.624;2023-03-01T07:24:22;6.60;;;3.23;;
24147;SDS011;12309;51.450;-2.624;2023-03-01T07:26:49;4.80;;;2.60;;
24147;SDS011;12309;51.450;-2.624;2023-03-01T07:29:15;6.37;;;2.70;;
24147;SDS011;12309;51.450;-2.624;2023-03-01T07:31:41;7.17;;;3.30;;
24147;SDS011;12309;51.450;-2.624;2023-03-01T07:34:06;7.03;;;2.93;;
24147;SDS011;12309;51.450;-2.624;2023-03-01T07:36:32;6.13;;;2.37;;
24147;SDS011;12309;51.450;-2.624;2023-03-01T07:38:58;7.13;;;2.27;;
24147;SDS011;12309;51.450;-2.624;2023-03-01T07:41:23;3.67;;;2.10;;
24147;SDS011;12309;51.450;-2.624;2023-03-01T07:43:49;3.47;;;2.10;;
24147;SDS011;12309;51.450;-2.624;2023-03-01T07:46:15;3.30;;;1.63;;
24147;SDS011;12309;51.450;-2.624;2023-03-01T07:48:41;8.33;;;2.33;;
24147;SDS011;12309;51.450;-2.624;2023-03-01T07:51:07;3.47;;;1.70;;
24147;SDS011;12309;51.450;-2.624;2023-03-01T07:53:33;3.93;;;1.67;;
24147;SDS011;12309;51.450;-2.624;2023-03-01T07:58:36;4.10;;;1.60;;
24147;SDS011;12309;51.450;-2.624;2023-03-01T08:01:07;4.10;;;1.50;;
24147;SDS011;12309;51.450;-2.624;2023-03-01T08:03:35;2.87;;;1.60;;
24147;SDS011;12309;51.450;-2.624;2023-03-01T08:06:02;4.20;;;1.60;;
24147;SDS011;12309;51.450;-2.624;2023-03-01T08:08:28;3.80;;;1.23;;
24147;SDS011;12309;51.450;-2.624;2023-03-01T08:10:57;4.67;;;1.43;;
24147;SDS011;12309;51.450;-2.624;2023-03-01T08:13:25;3.77;;;1.17;;
24147;SDS011;12309;51.450;-2.624;2023-03-01T08:15:51;4.37;;;1.50;;
24147;SDS011;12309;51.450;-2.624;2023-03-01T08:18:18;3.27;;;1.37;;
24147;SDS011;12309;51.450;-2.624;2023-03-01T08:20:45;5.20;;;1.70;;
24147;SDS011;12309;51.450;-2.624;2023-03-01T08:23:11;3.40;;;1.50;;
24147;SDS011;12309;51.450;-2.624;2023-03-01T08:25:37;3.30;;;1.53;;
24147;SDS011;12309;51.450;-2.624;2023-03-01T08:28:03;4.93;;;2.00;;
24147;SDS011;12309;51.450;-2.624;2023-03-01T08:30:30;6.03;;;1.80;;
24147;SDS011;12309;51.450;-2.624;2023-03-01T08:32:55;4.80;;;1.47;;
24147;SDS011;12309;51.450;-2.624;2023-03-01T08:35:21;1.90;;;1.20;;
24147;SDS011;12309;51.450;-2.624;2023-03-01T08:37:47;5.00;;;1.30;;
24147;SDS011;12309;51.450;-2.624;2023-03-01T08:40:13;2.57;;;1.00;;
24147;SDS011;12309;51.450;-2.624;2023-03-01T08:42:39;2.80;;;1.00;;
24147;SDS011;12309;51.450;-2.624;2023-03-01T08:45:06;1.50;;;0.97;;
24147;SDS011;12309;51.450;-2.624;2023-03-01T08:47:32;3.33;;;1.03;;
24147;SDS011;12309;51.450;-2.624;2023-03-01T08:49:58;2.77;;;1.00;;
24147;SDS011;12309;51.450;-2.624;2023-03-01T08:52:25;4.50;;;1.47;;
24147;SDS011;12309;51.450;-2.624;2023-03-01T08:54:51;2.73;;;1.70;;
24147;SDS011;12309;51.450;-2.624;2023-03-01T08:57:17;6.07;;;1.43;;
24147;SDS011;12309;51.450;-2.624;2023-03-01T08:59:43;2.90;;;1.50;;
24147;SDS011;12309;51.450;-2.624;2023-03-01T09:02:11;3.60;;;1.70;;
24147;SDS011;12309;51.450;-2.624;2023-03-01T09:04:38;2.50;;;1.73;;
24147;SDS011;12309;51.450;-2.624;2023-03-01T09:07:04;4.43;;;2.00;;
24147;SDS011;12309;51.450;-2.624;2023-03-01T09:09:30;3.20;;;1.70;;
24147;SDS011;12309;51.450;-2.624;2023-03-01T09:11:55;4.97;;;1.97;;
24147;SDS011;12309;51.450;-2.624;2023-03-01T09:14:22;5.37;;;2.20;;
24147;SDS011;12309;51.450;-2.624;2023-03-01T09:16:47;3.97;;;2.33;;
24147;SDS011;12309;51.450;-2.624;2023-03-01T09:19:13;7.33;;;2.43;;
24147;SDS011;12309;51.450;-2.624;2023-03-01T09:21:39;4.93;;;2.07;;
24147;SDS011;12309;51.450;-2.624;2023-03-01T09:24:05;6.00;;;2.17;;
24147;SDS011;12309;51.450;-2.624;2023-03-01T09:26:36;3.03;;;1.77;;
24147;SDS011;12309;51.450;-2.624;2023-03-01T09:29:02;4.37;;;2.30;;
24147;SDS011;12309;51.450;-2.624;2023-03-01T09:31:27;4.40;;;1.90;;
24147;SDS011;12309;51.450;-2.624;2023-03-01T09:33:53;3.33;;;1.93;;
24147;SDS011;12309;51.450;-2.624;2023-03-01T09:36:20;4.40;;;1.90;;
24147;SDS011;12309;51.450;-2.624;2023-03-01T09:38:47;4.10;;;2.10;;
24147;SDS011;12309;51.450;-2.624;2023-03-01T09:43:47;3.23;;;2.00;;
24147;SDS011;12309;51.450;-2.624;2023-03-01T09:46:22;7.13;;;2.47;;
24147;SDS011;12309;51.450;-2.624;2023-03-01T09:48:50;3.37;;;1.80;;
24147;SDS011;12309;51.450;-2.624;2023-03-01T09:51:31;3.87;;;1.77;;
24147;SDS011;12309;51.450;-2.624;2023-03-01T09:53:58;4.43;;;1.60;;
24147;SDS011;12309;51.450;-2.624;2023-03-01T09:59:07;2.80;;;1.80;;
24147;SDS011;12309;51.450;-2.624;2023-03-01T10:09:33;4.60;;;2.00;;
24147;SDS011;12309;51.450;-2.624;2023-03-01T10:12:00;3.23;;;1.70;;
24147;SDS011;12309;51.450;-2.624;2023-03-01T10:16:58;2.40;;;1.53;;
24147;SDS011;12309;51.450;-2.624;2023-03-01T10:19:45;2.10;;;1.30;;
24147;SDS011;12309;51.450;-2.624;2023-03-01T10:22:19;1.65;;;1.27;;
24147;SDS011;12309;51.450;-2.624;2023-03-01T10:24:53;1.75;;;0.90;;
24147;SDS011;12309;51.450;-2.624;2023-03-01T10:32:31;1.90;;;0.93;;
24147;SDS011;12309;51.450;-2.624;2023-03-01T10:34:56;1.13;;;0.80;;
24147;SDS011;12309;51.450;-2.624;2023-03-01T10:37:22;1.43;;;1.00;;
24147;SDS011;12309;51.450;-2.624;2023-03-01T10:42:34;3.80;;;1.10;;
24147;SDS011;12309;51.450;-2.624;2023-03-01T10:47:44;1.40;;;1.20;;
24147;SDS011;12309;51.450;-2.624;2023-03-01T10:50:20;1.10;;;0.97;;
24147;SDS011;12309;51.450;-2.624;2023-03-01T10:52:57;1.93;;;1.20;;
24147;SDS011;12309;51.450;-2.624;2023-03-01T10:55:33;4.23;;;1.07;;
24147;SDS011;12309;51.450;-2.624;2023-03-01T10:58:07;1.67;;;1.17;;
24147;SDS011;12309;51.450;-2.624;2023-03-01T11:00:33;1.83;;;1.30;;
24147;SDS011;12309;51.450;-2.624;2023-03-01T11:03:14;3.53;;;1.30;;
24147;SDS011;12309;51.450;-2.624;2023-03-01T11:05:53;2.97;;;0.87;;
24147;SDS011;12309;51.450;-2.624;2023-03-01T11:08:34;4.57;;;1.57;;
24147;SDS011;12309;51.450;-2.624;2023-03-01T11:11:16;3.50;;;1.30;;
24147;SDS011;12309;51.450;-2.624;2023-03-01T11:16:40;5.63;;;1.97;;
24147;SDS011;12309;51.450;-2.624;2023-03-01T11:21:34;3.57;;;1.80;;
24147;SDS011;12309;51.450;-2.624;2023-03-01T11:24:13;5.03;;;1.60;;
24147;SDS011;12309;51.450;-2.624;2023-03-01T11:26:42;7.53;;;1.60;;
24147;SDS011;12309;51.450;-2.624;2023-03-01T11:32:02;2.83;;;1.67;;
24147;SDS011;12309;51.450;-2.624;2023-03-01T11:37:44;5.07;;;1.63;;
24147;SDS011;12309;51.450;-2.624;2023-03-01T11:40:16;5.40;;;1.70;;
24147;SDS011;12309;51.450;-2.624;2023-03-01T11:48:44;3.20;;;1.60;;
24147;SDS011;12309;51.450;-2.624;2023-03-01T11:51:42;3.67;;;1.60;;
24147;SDS011;12309;51.450;-2.624;2023-03-01T11:54:27;2.00;;;1.57;;
24147;SDS011;12309;51.450;-2.624;2023-03-01T12:01:02;2.20;;;1.30;;
24147;SDS011;12309;51.450;-2.624;2023-03-01T12:06:55;4.40;;;1.20;;
24147;SDS011;12309;51.450;-2.624;2023-03-01T12:15:25;5.57;;;1.47;;
24147;SDS011;12309;51.450;-2.624;2023-03-01T12:18:21;2.90;;;1.50;;
24147;SDS011;12309;51.450;-2.624;2023-03-01T12:26:33;6.20;;;2.03;;
24147;SDS011;12309;51.450;-2.624;2023-03-01T12:34:42;4.67;;;2.47;;
24147;SDS011;12309;51.450;-2.624;2023-03-01T12:45:59;5.93;;;2.80;;
24147;SDS011;12309;51.450;-2.624;2023-03-01T12:51:39;6.93;;;2.80;;
24147;SDS011;12309;51.450;-2.624;2023-03-01T12:54:15;9.53;;;2.60;;
24147;SDS011;12309;51.450;-2.624;2023-03-01T12:56:47;4.40;;;2.60;;
24147;SDS011;12309;51.450;-2.624;2023-03-01T12:59:32;5.47;;;2.97;;
24147;SDS011;12309;51.450;-2.624;2023-03-01T13:04:45;4.60;;;3.30;;
24147;SDS011;12309;51.450;-2.624;2023-03-01T13:07:25;4.97;;;3.00;;
24147;SDS011;12309;51.450;-2.624;2023-03-01T13:12:52;6.97;;;3.57;;
24147;SDS011;12309;51.450;-2.624;2023-03-01T13:17:47;5.87;;;3.37;;
24147;SDS011;12309;51.450;-2.624;2023-03-01T13:20:29;8.27;;;3.67;;
24147;SDS011;12309;51.450;-2.624;2023-03-01T13:23:40;6.33;;;3.80;;
24147;SDS011;12309;51.450;-2.624;2023-03-01T13:31:05;6.40;;;3.53;;
24147;SDS011;12309;51.450;-2.624;2023-03-01T13:36:10;6.57;;;3.20;;
24147;SDS011;12309;51.450;-2.624;2023-03-01T13:38:48;5.10;;;3.20;;
24147;SDS011;12309;51.450;-2.624;2023-03-01T13:47:36;5.63;;;2.73;;
24147;SDS011;12309;51.450;-2.624;2023-03-01T13:49:44;6.50;;;3.30;;
24147;SDS011;12309;51.450;-2.624;2023-03-01T13:52:36;5.23;;;2.77;;
24147;SDS011;12309;51.450;-2.624;2023-03-01T13:57:38;4.30;;;3.00;;
24147;SDS011;12309;51.450;-2.624;2023-03-01T14:00:06;5.67;;;3.17;;
24147;SDS011;12309;51.450;-2.624;2023-03-01T14:02:59;7.90;;;3.33;;
24147;SDS011;12309;51.450;-2.624;2023-03-01T14:09:03;7.00;;;2.50;;
24147;SDS011;12309;51.450;-2.624;2023-03-01T14:11:48;3.70;;;2.47;;
24147;SDS011;12309;51.450;-2.624;2023-03-01T14:19:58;5.90;;;2.50;;
24147;SDS011;12309;51.450;-2.624;2023-03-01T14:22:29;4.77;;;2.40;;
24147;SDS011;12309;51.450;-2.624;2023-03-01T14:24:59;6.03;;;2.10;;
24147;SDS011;12309;51.450;-2.624;2023-03-01T14:27:26;5.83;;;2.40;;
24147;SDS011;12309;51.450;-2.624;2023-03-01T14:30:09;7.70;;;2.30;;
24147;SDS011;12309;51.450;-2.624;2023-03-01T14:32:39;5.03;;;2.00;;
24147;SDS011;12309;51.450;-2.624;2023-03-01T14:35:19;3.93;;;2.10;;
24147;SDS011;12309;51.450;-2.624;2023-03-01T14:37:47;4.47;;;2.50;;
24147;SDS011;12309;51.450;-2.624;2023-03-01T14:40:48;8.33;;;2.40;;
24147;SDS011;12309;51.450;-2.624;2023-03-01T14:43:11;3.67;;;2.17;;
24147;SDS011;12309;51.450;-2.624;2023-03-01T14:45:42;7.17;;;2.57;;
24147;SDS011;12309;51.450;-2.624;2023-03-01T14:48:13;4.10;;;2.13;;
24147;SDS011;12309;51.450;-2.624;2023-03-01T14:50:40;4.57;;;2.37;;
24147;SDS011;12309;51.450;-2.624;2023-03-01T14:53:07;4.80;;;2.20;;
24147;SDS011;12309;51.450;-2.624;2023-03-01T14:55:53;4.87;;;2.60;;
24147;SDS011;12309;51.450;-2.624;2023-03-01T14:58:21;4.80;;;2.50;;
24147;SDS011;12309;51.450;-2.624;2023-03-01T15:00:53;3.83;;;2.20;;
24147;SDS011;12309;51.450;-2.624;2023-03-01T15:03:31;5.00;;;2.10;;
24147;SDS011;12309;51.450;-2.624;2023-03-01T15:06:15;4.63;;;1.83;;
24147;SDS011;12309;51.450;-2.624;2023-03-01T15:08:50;3.27;;;1.73;;
24147;SDS011;12309;51.450;-2.624;2023-03-01T15:11:27;4.23;;;2.03;;
24147;SDS011;12309;51.450;-2.624;2023-03-01T15:13:54;3.17;;;1.77;;
24147;SDS011;12309;51.450;-2.624;2023-03-01T15:19:03;6.37;;;2.13;;
24147;SDS011;12309;51.450;-2.624;2023-03-01T15:21:35;8.20;;;2.20;;
24147;SDS011;12309;51.450;-2.624;2023-03-01T15:26:40;6.13;;;2.00;;
24147;SDS011;12309;51.450;-2.624;2023-03-01T15:29:15;5.43;;;2.30;;
24147;SDS011;12309;51.450;-2.624;2023-03-01T15:31:43;4.53;;;2.07;;
24147;SDS011;12309;51.450;-2.624;2023-03-01T15:34:28;4.10;;;2.30;;
24147;SDS011;12309;51.450;-2.624;2023-03-01T15:37:05;5.50;;;2.03;;
24147;SDS011;12309;51.450;-2.624;2023-03-01T15:39:55;4.23;;;1.80;;
24147;SDS011;12309;51.450;-2.624;2023-03-01T15:47:52;3.87;;;1.90;;
24147;SDS011;12309;51.450;-2.624;2023-03-01T15:50:24;11.63;;;1.97;;
24147;SDS011;12309;51.450;-2.624;2023-03-01T15:52:52;4.00;;;2.03;;
24147;SDS011;12309;51.450;-2.624;2023-03-01T15:55:23;7.07;;;2.10;;
24147;SDS011;12309;51.450;-2.624;2023-03-01T15:58:12;5.20;;;1.90;;
24147;SDS011;12309;51.450;-2.624;2023-03-01T16:00:38;3.37;;;1.87;;
24147;SDS011;12309;51.450;-2.624;2023-03-01T16:03:04;7.43;;;2.30;;
24147;SDS011;12309;51.450;-2.624;2023-03-01T16:05:32;3.30;;;2.07;;
24147;SDS011;12309;51.450;-2.624;2023-03-01T16:07:59;3.57;;;2.00;;
24147;SDS011;12309;51.450;-2.624;2023-03-01T16:10:25;5.60;;;2.00;;
24147;SDS011;12309;51.450;-2.624;2023-03-01T16:12:52;5.97;;;2.43;;
24147;SDS011;12309;51.450;-2.624;2023-03-01T16:15:23;4.27;;;2.27;;
24147;SDS011;12309;51.450;-2.624;2023-03-01T16:17:50;5.27;;;2.50;;
24147;SDS011;12309;51.450;-2.624;2023-03-01T16:20:17;5.20;;;2.70;;
24147;SDS011;12309;51.450;-2.624;2023-03-01T16:22:43;6.87;;;3.07;;
24147;SDS011;12309;51.450;-2.624;2023-03-01T16:25:10;6.07;;;2.97;;
24147;SDS011;12309;51.450;-2.624;2023-03-01T16:27:37;6.60;;;3.03;;
24147;SDS011;12309;51.450;-2.624;2023-03-01T16:30:04;7.97;;;2.97;;
24147;SDS011;12309;51.450;-2.624;2023-03-01T16:32:30;8.13;;;3.23;;
24147;SDS011;12309;51.450;-2.624;2023-03-01T16:34:56;8.63;;;3.20;;
24147;SDS011;12309;51.450;-2.624;2023-03-01T16:37:22;5.67;;;2.80;;
24147;SDS011;12309;51.450;-2.624;2023-03-01T16:39:48;9.63;;;3.40;;
24147;SDS011;12309;51.450;-2.624;2023-03-01T16:42:16;5.70;;;3.13;;
24147;SDS011;12309;51.450;-2.624;2023-03-01T16:44:42;11.13;;;3.30;;
24147;SDS011;12309;51.450;-2.624;2023-03-01T16:47:08;8.17;;;3.47;;
24147;SDS011;12309;51.450;-2.624;2023-03-01T16:49:34;5.30;;;2.93;;
24147;SDS011;12309;51.450;-2.624;2023-03-01T16:51:59;7.20;;;3.60;;
24147;SDS011;12309;51.450;-2.624;2023-03-01T16:54:25;7.07;;;3.20;;
24147;SDS011;12309;51.450;-2.624;2023-03-01T16:56:50;5.93;;;3.07;;
24147;SDS011;12309;51.450;-2.624;2023-03-01T16:59:16;8.23;;;3.20;;
24147;SDS011;12309;51.450;-2.624;2023-03-01T17:01:44;6.47;;;3.20;;
24147;SDS011;12309;51.450;-2.624;2023-03-01T17:04:10;6.10;;;3.20;;
24147;SDS011;12309;51.450;-2.624;2023-03-01T17:06:37;7.80;;;3.43;;
24147;SDS011;12309;51.450;-2.624;2023-03-01T17:09:02;10.20;;;3.77;;
24147;SDS011;12309;51.450;-2.624;2023-03-01T17:11:28;8.90;;;3.40;;
24147;SDS011;12309;51.450;-2.624;2023-03-01T17:13:54;9.83;;;3.40;;